createdAt,value
2022-08-19T00:01:28.912Z,20.97
2022-08-19T00:03:08.675Z,20.9
2022-08-19T00:04:48.443Z,20.91
2022-08-19T00:06:28.194Z,20.88
2022-08-19T00:08:07.967Z,20.89
2022-08-19T00:09:47.724Z,20.88
2022-08-19T00:11:27.489Z,20.87
2022-08-19T00:13:07.264Z,20.85
2022-08-19T00:14:47.016Z,20.86
2022-08-19T00:16:26.794Z,20.86
2022-08-19T00:18:06.558Z,20.84
2022-08-19T00:19:46.315Z,20.82
2022-08-19T00:21:26.066Z,20.82
2022-08-19T00:23:05.848Z,20.79
2022-08-19T00:24:45.605Z,20.76
2022-08-19T00:26:25.371Z,20.77
2022-08-19T00:28:05.154Z,20.76
2022-08-19T00:29:44.904Z,20.75
2022-08-19T00:31:24.652Z,20.75
2022-08-19T00:33:04.425Z,20.76
2022-08-19T00:34:44.194Z,20.74
2022-08-19T00:36:23.960Z,20.73
2022-08-19T00:38:03.717Z,20.71
2022-08-19T00:39:43.474Z,20.67
2022-08-19T00:41:23.247Z,20.64
2022-08-19T00:43:03.020Z,20.59
2022-08-19T00:44:42.773Z,20.56
2022-08-19T00:46:22.542Z,20.53
2022-08-19T00:48:02.292Z,20.5
2022-08-19T00:51:21.822Z,20.45
2022-08-19T00:53:01.590Z,20.43
2022-08-19T00:54:41.369Z,20.46
2022-08-19T00:56:21.120Z,20.4
2022-08-19T00:58:00.891Z,20.37
2022-08-19T00:59:40.649Z,20.36
2022-08-19T01:01:20.430Z,20.35
2022-08-19T01:03:00.200Z,20.35
2022-08-19T01:06:19.720Z,20.32
2022-08-19T01:07:59.482Z,20.31
2022-08-19T01:09:39.224Z,20.31
2022-08-19T01:11:19.007Z,20.31
2022-08-19T01:12:58.755Z,20.29
2022-08-19T01:14:38.535Z,20.29
2022-08-19T01:16:18.290Z,20.28
2022-08-19T01:17:58.063Z,20.26
2022-08-19T01:21:17.589Z,20.21
2022-08-19T01:22:57.345Z,20.23
2022-08-19T01:24:37.116Z,20.21
2022-08-19T01:26:16.874Z,20.2
2022-08-19T01:27:56.638Z,20.19
2022-08-19T01:29:36.394Z,20.16
2022-08-19T01:31:16.176Z,20.15
2022-08-19T01:32:55.936Z,20.12
2022-08-19T01:34:35.691Z,20.11
2022-08-19T01:36:15.456Z,20.08
2022-08-19T01:37:55.224Z,20.04
2022-08-19T01:39:34.978Z,20.01
2022-08-19T01:41:14.758Z,19.99
2022-08-19T01:42:54.515Z,19.95
2022-08-19T01:44:34.273Z,19.94
2022-08-19T01:46:14.052Z,19.92
2022-08-19T01:47:53.806Z,19.91
2022-08-19T01:49:33.569Z,19.87
2022-08-19T01:51:13.329Z,19.85
2022-08-19T01:52:53.104Z,19.83
2022-08-19T01:54:32.854Z,19.81
2022-08-19T01:56:12.616Z,19.79
2022-08-19T01:57:52.384Z,19.78
2022-08-19T01:59:32.154Z,19.76
2022-08-19T02:01:11.919Z,19.76
2022-08-19T02:02:51.680Z,19.78
2022-08-19T02:04:31.446Z,19.74
2022-08-19T02:06:11.217Z,19.78
2022-08-19T02:07:50.979Z,19.76
2022-08-19T02:11:10.507Z,19.73
2022-08-19T02:12:50.324Z,19.7
2022-08-19T02:14:30.037Z,19.7
2022-08-19T02:17:49.563Z,19.69
2022-08-19T02:19:29.334Z,19.66
2022-08-19T02:21:09.096Z,19.66
2022-08-19T02:22:48.857Z,19.66
2022-08-19T02:24:28.625Z,19.65
2022-08-19T02:26:08.371Z,19.66
2022-08-19T02:27:48.136Z,19.67
2022-08-19T02:29:27.903Z,19.64
2022-08-19T02:31:07.674Z,19.64
2022-08-19T02:32:47.429Z,19.62
2022-08-19T02:34:27.207Z,19.62
2022-08-19T02:36:06.968Z,19.62
2022-08-19T02:37:46.737Z,19.62
2022-08-19T02:41:06.263Z,19.61
2022-08-19T02:42:46.039Z,19.61
2022-08-19T02:44:25.789Z,19.59
2022-08-19T02:46:05.583Z,19.59
2022-08-19T02:49:25.074Z,19.58
2022-08-19T02:51:04.845Z,19.57
2022-08-19T02:52:44.610Z,19.57
2022-08-19T02:54:24.370Z,19.56
2022-08-19T02:56:04.129Z,19.54
2022-08-19T02:57:43.893Z,19.49
2022-08-19T02:59:23.659Z,19.54
2022-08-19T03:01:03.424Z,19.52
2022-08-19T03:02:43.189Z,19.51
2022-08-19T03:04:22.950Z,19.5
2022-08-19T03:06:02.717Z,19.49
2022-08-19T03:07:42.484Z,19.49
2022-08-19T03:09:22.257Z,19.45
2022-08-19T03:11:02.010Z,19.45
2022-08-19T03:12:41.777Z,19.44
2022-08-19T03:14:21.544Z,19.4
2022-08-19T03:16:01.317Z,19.42
2022-08-19T03:17:41.074Z,19.42
2022-08-19T03:21:00.588Z,19.39
2022-08-19T03:22:40.363Z,19.39
2022-08-19T03:24:20.118Z,19.39
2022-08-19T03:25:59.882Z,19.39
2022-08-19T03:27:39.653Z,19.37
2022-08-19T03:29:19.419Z,19.37
2022-08-19T03:30:59.170Z,19.36
2022-08-19T03:32:38.936Z,19.35
2022-08-19T03:34:18.704Z,19.35
2022-08-19T03:35:58.468Z,19.35
2022-08-19T03:37:38.230Z,19.35
2022-08-19T03:40:57.766Z,19.33
2022-08-19T03:42:37.515Z,19.42
2022-08-19T03:44:17.286Z,19.32
2022-08-19T03:45:57.073Z,19.32
2022-08-19T03:47:36.809Z,19.29
2022-08-19T03:49:16.579Z,19.29
2022-08-19T03:50:56.348Z,19.29
2022-08-19T03:52:36.117Z,19.29
2022-08-19T03:54:15.878Z,19.27
2022-08-19T03:55:55.640Z,19.27
2022-08-19T03:57:35.399Z,19.26
2022-08-19T03:59:15.162Z,19.27
2022-08-19T04:00:54.921Z,19.26
2022-08-19T04:02:34.691Z,19.26
2022-08-19T04:04:14.465Z,19.25
2022-08-19T04:05:54.223Z,19.24
2022-08-19T04:07:33.992Z,19.24
2022-08-19T04:09:13.737Z,19.23
2022-08-19T04:10:53.508Z,19.23
2022-08-19T04:12:33.285Z,19.29
2022-08-19T04:14:13.047Z,19.33
2022-08-19T04:15:52.812Z,19.21
2022-08-19T04:17:32.570Z,19.21
2022-08-19T04:19:12.348Z,19.2
2022-08-19T04:20:52.095Z,19.27
2022-08-19T04:22:31.865Z,19.26
2022-08-19T04:24:11.616Z,19.21
2022-08-19T04:25:51.399Z,19.23
2022-08-19T04:27:31.152Z,19.24
2022-08-19T04:29:10.931Z,19.23
2022-08-19T04:30:50.684Z,19.24
2022-08-19T04:32:30.438Z,19.23
2022-08-19T04:34:10.203Z,19.27
2022-08-19T04:35:49.970Z,19.25
2022-08-19T04:37:29.747Z,19.27
2022-08-19T04:39:09.517Z,19.28
2022-08-19T04:40:49.271Z,19.28
2022-08-19T04:42:29.030Z,19.26
2022-08-19T04:44:08.800Z,19.29
2022-08-19T04:45:48.566Z,19.28
2022-08-19T04:47:28.333Z,19.31
2022-08-19T04:50:47.850Z,19.32
2022-08-19T04:52:27.617Z,19.29
2022-08-19T04:54:07.392Z,19.34
2022-08-19T04:55:47.157Z,19.33
2022-08-19T04:57:26.932Z,19.33
2022-08-19T04:59:06.682Z,19.33
2022-08-19T05:00:46.478Z,19.32
2022-08-19T05:02:26.219Z,19.33
2022-08-19T05:04:05.986Z,19.32
2022-08-19T05:05:45.749Z,19.29
2022-08-19T05:07:25.493Z,19.35
2022-08-19T05:09:05.276Z,19.34
2022-08-19T05:10:45.031Z,19.34
2022-08-19T05:12:24.791Z,19.32
2022-08-19T05:14:04.559Z,19.33
2022-08-19T05:15:44.319Z,19.31
2022-08-19T05:17:24.086Z,19.34
2022-08-19T05:19:03.847Z,19.33
2022-08-19T05:20:43.609Z,19.33
2022-08-19T05:22:23.395Z,19.35
2022-08-19T05:24:03.143Z,19.34
2022-08-19T05:25:42.905Z,19.35
2022-08-19T05:27:22.684Z,19.37
2022-08-19T05:30:42.220Z,19.37
2022-08-19T05:32:21.965Z,19.4
2022-08-19T05:34:01.728Z,19.4
2022-08-19T05:35:41.499Z,19.41
2022-08-19T05:37:21.264Z,19.41
2022-08-19T05:39:01.034Z,19.42
2022-08-19T05:40:40.779Z,19.43
2022-08-19T05:42:20.555Z,19.45
2022-08-19T05:44:00.327Z,19.48
2022-08-19T05:45:40.078Z,19.49
2022-08-19T05:47:19.839Z,19.51
2022-08-19T05:48:59.599Z,19.5
2022-08-19T05:50:39.368Z,19.58
2022-08-19T05:52:19.128Z,19.56
2022-08-19T05:53:58.900Z,19.58
2022-08-19T05:55:38.665Z,19.61
2022-08-19T05:57:18.433Z,19.65
2022-08-19T05:58:58.189Z,19.67
2022-08-19T06:00:37.959Z,19.67
2022-08-19T06:02:17.721Z,19.7
2022-08-19T06:05:37.246Z,19.77
2022-08-19T06:07:17.014Z,19.78
2022-08-19T06:08:56.784Z,19.79
2022-08-19T06:10:36.541Z,19.83
2022-08-19T06:12:16.308Z,19.86
2022-08-19T06:13:56.096Z,19.87
2022-08-19T06:15:35.839Z,19.87
2022-08-19T06:17:15.597Z,19.93
2022-08-19T06:18:55.355Z,19.95
2022-08-19T06:20:35.127Z,20
2022-08-19T06:22:14.888Z,20.02
2022-08-19T06:23:54.662Z,20.03
2022-08-19T06:25:34.413Z,20.09
2022-08-19T06:27:14.168Z,20.14
2022-08-19T06:28:53.935Z,20.17
2022-08-19T06:30:33.704Z,20.2
2022-08-19T06:32:13.484Z,20.25
2022-08-19T06:33:53.236Z,20.26
2022-08-19T06:35:32.997Z,20.31
2022-08-19T06:37:12.758Z,20.29
2022-08-19T06:38:52.526Z,20.37
2022-08-19T06:40:32.301Z,20.42
2022-08-19T06:42:12.050Z,20.46
2022-08-19T06:43:51.826Z,20.5
2022-08-19T06:45:31.596Z,20.52
2022-08-19T06:47:11.357Z,20.66
2022-08-19T06:48:51.114Z,20.61
2022-08-19T06:50:30.869Z,20.62
2022-08-19T06:52:10.644Z,20.75
2022-08-19T06:53:50.414Z,20.7
2022-08-19T06:55:30.174Z,20.72
2022-08-19T06:57:09.932Z,20.75
2022-08-19T07:00:29.457Z,20.82
2022-08-19T07:02:09.231Z,20.85
2022-08-19T07:03:48.984Z,20.89
2022-08-19T07:05:28.756Z,20.91
2022-08-19T07:07:08.525Z,20.93
2022-08-19T07:08:48.291Z,20.91
2022-08-19T07:10:28.056Z,20.93
2022-08-19T07:12:07.808Z,20.98
2022-08-19T07:13:47.576Z,20.99
2022-08-19T07:15:27.342Z,21.01
2022-08-19T07:17:07.140Z,21.03
2022-08-19T07:18:46.857Z,21.07
2022-08-19T07:20:26.626Z,21.11
2022-08-19T07:22:06.403Z,21.11
2022-08-19T07:23:46.163Z,21.15
2022-08-19T07:25:25.935Z,21.16
2022-08-19T07:27:05.692Z,21.21
2022-08-19T07:28:45.460Z,21.23
2022-08-19T07:30:25.219Z,21.24
2022-08-19T07:32:04.974Z,21.28
2022-08-19T07:33:44.747Z,21.27
2022-08-19T07:35:24.524Z,21.33
2022-08-19T07:37:04.304Z,21.35
2022-08-19T07:38:44.036Z,21.33
2022-08-19T07:40:23.792Z,21.4
2022-08-19T07:42:03.567Z,21.42
2022-08-19T07:43:43.344Z,21.42
2022-08-19T07:45:23.095Z,21.46
2022-08-19T07:47:02.855Z,21.48
2022-08-19T07:48:42.630Z,21.5
2022-08-19T07:50:22.383Z,21.52
2022-08-19T07:52:02.155Z,21.53
2022-08-19T07:53:41.919Z,21.57
2022-08-19T07:57:01.431Z,21.67
2022-08-19T08:00:20.967Z,21.64
2022-08-19T08:02:00.742Z,21.69
2022-08-19T08:03:40.489Z,21.73
2022-08-19T08:05:20.265Z,21.75
2022-08-19T08:07:00.033Z,21.76
2022-08-19T08:10:19.546Z,21.8
2022-08-19T08:11:59.315Z,21.86
2022-08-19T08:13:39.073Z,21.91
2022-08-19T08:15:18.860Z,21.92
2022-08-19T08:16:58.623Z,21.94
2022-08-19T08:18:38.414Z,21.97
2022-08-19T08:20:18.131Z,21.99
2022-08-19T08:21:57.911Z,22.01
2022-08-19T08:23:37.662Z,22.06
2022-08-19T08:25:17.431Z,22.07
2022-08-19T08:26:57.196Z,22.12
2022-08-19T08:28:36.950Z,22.15
2022-08-19T08:30:16.721Z,22.2
2022-08-19T08:31:56.492Z,22.22
2022-08-19T08:33:36.271Z,22.3
2022-08-19T08:35:16.012Z,22.32
2022-08-19T08:36:55.784Z,22.39
2022-08-19T08:38:35.539Z,22.44
2022-08-19T08:40:15.303Z,22.45
2022-08-19T08:41:55.073Z,22.48
2022-08-19T08:43:34.831Z,22.49
2022-08-19T08:45:14.594Z,22.53
2022-08-19T08:46:54.371Z,22.53
2022-08-19T08:48:34.124Z,22.52
2022-08-19T08:50:13.904Z,22.53
2022-08-19T08:51:53.680Z,22.54
2022-08-19T08:53:33.425Z,22.55
2022-08-19T08:55:13.191Z,22.53
2022-08-19T08:56:52.960Z,22.57
2022-08-19T08:58:32.715Z,22.56
2022-08-19T09:00:12.479Z,22.6
2022-08-19T09:03:32.019Z,22.64
2022-08-19T09:05:11.765Z,22.7
2022-08-19T09:06:51.538Z,22.73
2022-08-19T09:08:31.290Z,22.79
2022-08-19T09:10:11.066Z,22.78
2022-08-19T09:11:50.823Z,22.81
2022-08-19T09:13:30.591Z,22.83
2022-08-19T09:15:10.344Z,22.83
2022-08-19T09:16:50.113Z,22.85
2022-08-19T09:18:29.885Z,22.87
2022-08-19T09:20:09.657Z,22.89
2022-08-19T09:21:49.428Z,22.89
2022-08-19T09:23:29.196Z,22.93
2022-08-19T09:25:08.930Z,22.92
2022-08-19T09:26:48.713Z,22.92
2022-08-19T09:28:28.474Z,22.94
2022-08-19T09:30:08.237Z,22.92
2022-08-19T09:31:48.000Z,22.93
2022-08-19T09:33:27.764Z,22.95
2022-08-19T09:35:07.532Z,22.95
2022-08-19T09:36:47.297Z,22.96
2022-08-19T09:38:27.054Z,22.95
2022-08-19T09:40:06.823Z,22.95
2022-08-19T09:41:46.589Z,22.99
2022-08-19T09:43:26.343Z,22.93
2022-08-19T09:45:06.121Z,23
2022-08-19T09:46:45.878Z,22.92
2022-08-19T09:48:25.636Z,22.91
2022-08-19T09:50:05.425Z,22.88
2022-08-19T09:51:45.168Z,22.87
2022-08-19T09:53:24.940Z,22.85
2022-08-19T09:55:04.703Z,22.82
2022-08-19T09:56:44.471Z,22.8
2022-08-19T09:58:24.222Z,22.79
2022-08-19T10:01:43.767Z,22.8
2022-08-19T10:03:23.503Z,22.79
2022-08-19T10:05:03.274Z,22.83
2022-08-19T10:06:43.038Z,22.91
2022-08-19T10:08:22.813Z,22.86
2022-08-19T10:10:02.571Z,22.91
2022-08-19T10:11:42.349Z,22.93
2022-08-19T10:13:22.097Z,22.98
2022-08-19T10:15:01.870Z,23.06
2022-08-19T10:16:41.624Z,23.11
2022-08-19T10:18:21.391Z,23.17
2022-08-19T10:20:01.153Z,23.21
2022-08-19T10:21:40.917Z,23.24
2022-08-19T10:23:20.700Z,23.27
2022-08-19T10:25:00.443Z,23.29
2022-08-19T10:26:40.221Z,23.27
2022-08-19T10:28:19.965Z,23.28
2022-08-19T10:29:59.746Z,23.28
2022-08-19T10:31:39.511Z,23.25
2022-08-19T10:33:19.283Z,23.25
2022-08-19T10:34:59.053Z,23.3
2022-08-19T10:36:38.800Z,23.25
2022-08-19T10:38:18.560Z,23.25
2022-08-19T10:39:58.317Z,23.27
2022-08-19T10:41:38.099Z,23.3
2022-08-19T10:43:17.854Z,23.31
2022-08-19T10:44:57.613Z,23.3
2022-08-19T10:46:37.376Z,23.37
2022-08-19T10:48:17.162Z,23.4
2022-08-19T10:49:56.911Z,23.4
2022-08-19T10:51:36.669Z,23.42
2022-08-19T10:53:16.435Z,23.39
2022-08-19T10:54:56.208Z,23.39
2022-08-19T10:56:35.964Z,23.35
2022-08-19T10:58:15.730Z,23.32
2022-08-19T10:59:55.492Z,23.33
2022-08-19T11:01:35.270Z,23.32
2022-08-19T11:03:15.037Z,23.32
2022-08-19T11:04:54.799Z,23.34
2022-08-19T11:06:34.541Z,23.33
2022-08-19T11:09:54.072Z,23.34
2022-08-19T11:11:33.839Z,23.34
2022-08-19T11:13:13.615Z,23.33
2022-08-19T11:14:53.386Z,23.29
2022-08-19T11:16:33.148Z,23.29
2022-08-19T11:18:12.914Z,23.34
2022-08-19T11:19:52.669Z,23.23
2022-08-19T11:21:32.440Z,23.24
2022-08-19T11:23:12.204Z,23.23
2022-08-19T11:24:51.972Z,23.21
2022-08-19T11:26:31.711Z,23.24
2022-08-19T11:28:11.482Z,23.25
2022-08-19T11:29:51.249Z,23.28
2022-08-19T11:31:31.020Z,23.3
2022-08-19T11:33:10.776Z,23.35
2022-08-19T11:34:50.538Z,23.4
2022-08-19T11:36:30.302Z,23.43
2022-08-19T11:38:10.080Z,23.42
2022-08-19T11:39:49.845Z,23.46
2022-08-19T11:41:29.609Z,23.46
2022-08-19T11:43:09.369Z,23.45
2022-08-19T11:44:49.135Z,23.58
2022-08-19T11:46:28.898Z,23.45
2022-08-19T11:48:08.658Z,23.45
2022-08-19T11:49:48.434Z,23.46
2022-08-19T11:51:28.197Z,23.54
2022-08-19T11:53:07.941Z,23.47
2022-08-19T11:54:47.725Z,23.5
2022-08-19T11:56:27.482Z,23.54
2022-08-19T11:58:07.250Z,23.57
2022-08-19T11:59:47.012Z,23.58
2022-08-19T12:01:26.780Z,23.64
2022-08-19T12:03:06.544Z,23.66
2022-08-19T12:04:46.292Z,23.68
2022-08-19T12:06:26.067Z,23.7
2022-08-19T12:08:05.828Z,23.69
2022-08-19T12:09:45.600Z,23.71
2022-08-19T12:11:25.359Z,23.75
2022-08-19T12:13:05.156Z,23.77
2022-08-19T12:14:44.880Z,23.75
2022-08-19T12:16:24.645Z,23.82
2022-08-19T12:18:04.415Z,23.84
2022-08-19T12:19:44.185Z,23.83
2022-08-19T12:21:23.940Z,23.82
2022-08-19T12:23:03.704Z,23.81
2022-08-19T12:24:43.475Z,23.78
2022-08-19T12:26:23.242Z,23.81
2022-08-19T12:28:03.003Z,23.7
2022-08-19T12:31:22.519Z,23.63
2022-08-19T12:33:02.294Z,23.61
2022-08-19T12:34:42.049Z,23.59
2022-08-19T12:36:21.842Z,23.57
2022-08-19T12:38:01.578Z,23.58
2022-08-19T12:39:41.351Z,23.59
2022-08-19T12:41:21.113Z,23.6
2022-08-19T12:43:00.885Z,23.65
2022-08-19T12:44:40.638Z,23.65
2022-08-19T12:46:20.399Z,23.78
2022-08-19T12:48:00.181Z,23.86
2022-08-19T12:49:39.932Z,23.91
2022-08-19T12:51:19.687Z,23.97
2022-08-19T12:52:59.462Z,24
2022-08-19T12:54:39.214Z,24.03
2022-08-19T12:56:18.982Z,24
2022-08-19T12:57:58.755Z,24.02
2022-08-19T12:59:38.529Z,24.02
2022-08-19T13:01:18.280Z,24.02
2022-08-19T13:02:58.053Z,24.01
2022-08-19T13:04:37.806Z,24.02
2022-08-19T13:06:17.586Z,24.04
2022-08-19T13:07:57.350Z,24.07
2022-08-19T13:09:37.098Z,24.14
2022-08-19T13:11:16.864Z,24.03
2022-08-19T13:12:56.664Z,24.03
2022-08-19T13:14:36.393Z,24.03
2022-08-19T13:16:16.153Z,24.03
2022-08-19T13:17:55.928Z,24.01
2022-08-19T13:19:35.681Z,24.02
2022-08-19T13:21:15.446Z,24.03
2022-08-19T13:22:55.213Z,24.02
2022-08-19T13:26:14.753Z,24.01
2022-08-19T13:27:54.514Z,24.01
2022-08-19T13:29:34.272Z,24.01
2022-08-19T13:31:14.036Z,24.01
2022-08-19T13:32:53.822Z,24.02
2022-08-19T13:34:33.557Z,24.01
2022-08-19T13:36:13.339Z,24.01
2022-08-19T13:37:53.111Z,24.01
2022-08-19T13:39:32.861Z,24.02
2022-08-19T13:41:12.632Z,24.01
2022-08-19T13:42:52.395Z,24.01
2022-08-19T13:44:32.156Z,24.04
2022-08-19T13:46:11.910Z,24.04
2022-08-19T13:47:51.677Z,24.03
2022-08-19T13:49:31.448Z,24.06
2022-08-19T13:51:11.201Z,24.05
2022-08-19T13:52:50.981Z,24.08
2022-08-19T13:54:30.745Z,24.06
2022-08-19T13:56:10.499Z,24.01
2022-08-19T13:57:50.272Z,24.03
2022-08-19T13:59:30.043Z,24
2022-08-19T14:01:09.803Z,23.96
2022-08-19T14:02:49.562Z,23.95
2022-08-19T14:04:29.321Z,23.9
2022-08-19T14:06:09.086Z,23.89
2022-08-19T14:07:48.857Z,23.88
2022-08-19T14:09:28.619Z,23.87
2022-08-19T14:11:08.374Z,23.86
2022-08-19T14:12:48.150Z,23.87
2022-08-19T14:16:07.672Z,23.87
2022-08-19T14:17:47.450Z,23.85
2022-08-19T14:19:27.188Z,23.86
2022-08-19T14:21:06.959Z,23.85
2022-08-19T14:22:46.729Z,23.82
2022-08-19T14:24:26.487Z,23.78
2022-08-19T14:26:06.262Z,23.84
2022-08-19T14:27:46.014Z,23.76
2022-08-19T14:29:25.796Z,23.73
2022-08-19T14:31:05.553Z,23.72
2022-08-19T14:32:45.325Z,23.73
2022-08-19T14:34:25.081Z,23.71
2022-08-19T14:36:04.836Z,23.71
2022-08-19T14:37:44.604Z,23.7
2022-08-19T14:39:24.374Z,23.69
2022-08-19T14:41:04.123Z,23.65
2022-08-19T14:42:43.902Z,23.65
2022-08-19T14:44:23.659Z,23.63
2022-08-19T14:46:03.424Z,23.65
2022-08-19T14:47:43.194Z,23.64
2022-08-19T14:49:22.961Z,23.62
2022-08-19T14:51:02.721Z,23.73
2022-08-19T14:52:42.475Z,23.62
2022-08-19T14:54:22.240Z,23.62
2022-08-19T14:56:02.008Z,23.6
2022-08-19T14:57:41.772Z,23.61
2022-08-19T14:59:21.547Z,23.74
2022-08-19T15:01:01.311Z,23.68
2022-08-19T15:02:41.067Z,23.59
2022-08-19T15:04:20.827Z,23.6
2022-08-19T15:06:00.605Z,23.58
2022-08-19T15:07:40.426Z,23.58
2022-08-19T15:09:20.117Z,23.58
2022-08-19T15:10:59.887Z,23.56
2022-08-19T15:12:39.665Z,23.54
2022-08-19T15:15:59.180Z,23.51
2022-08-19T15:17:38.954Z,23.52
2022-08-19T15:19:18.738Z,23.5
2022-08-19T15:20:58.478Z,23.48
2022-08-19T15:22:38.243Z,23.48
2022-08-19T15:24:18.000Z,23.6
2022-08-19T15:25:57.771Z,23.47
2022-08-19T15:27:37.548Z,23.46
2022-08-19T15:29:17.302Z,23.52
2022-08-19T15:30:57.055Z,23.44
2022-08-19T15:32:36.839Z,23.41
2022-08-19T15:34:16.598Z,23.41
2022-08-19T15:35:56.353Z,23.4
2022-08-19T15:37:36.118Z,23.41
2022-08-19T15:39:15.876Z,23.4
2022-08-19T15:40:55.690Z,23.39
2022-08-19T15:42:35.417Z,23.37
2022-08-19T15:44:15.168Z,23.36
2022-08-19T15:45:54.946Z,23.36
2022-08-19T15:49:14.476Z,23.33
2022-08-19T15:50:54.228Z,23.31
2022-08-19T15:52:34.000Z,23.28
2022-08-19T15:54:13.765Z,23.28
2022-08-19T15:55:53.518Z,23.26
2022-08-19T15:57:33.283Z,23.25
2022-08-19T15:59:13.047Z,23.23
2022-08-19T16:00:52.817Z,23.26
2022-08-19T16:02:32.586Z,23.21
2022-08-19T16:04:12.344Z,23.21
2022-08-19T16:05:52.105Z,23.21
2022-08-19T16:07:31.883Z,23.25
2022-08-19T16:09:11.629Z,23.17
2022-08-19T16:10:51.403Z,23.15
2022-08-19T16:12:31.159Z,23.13
2022-08-19T16:14:10.928Z,23.13
2022-08-19T16:15:50.687Z,23.1
2022-08-19T16:17:30.448Z,23.1
2022-08-19T16:19:10.228Z,23.05
2022-08-19T16:20:49.976Z,23.04
2022-08-19T16:22:29.757Z,23.03
2022-08-19T16:24:09.522Z,23.01
2022-08-19T16:25:49.269Z,22.98
2022-08-19T16:27:29.042Z,22.95
2022-08-19T16:29:08.815Z,22.94
2022-08-19T16:30:48.569Z,22.96
2022-08-19T16:32:28.340Z,22.94
2022-08-19T16:34:08.101Z,22.94
2022-08-19T16:35:47.872Z,22.95
2022-08-19T16:37:27.635Z,22.96
2022-08-19T16:39:07.394Z,22.93
2022-08-19T16:40:47.161Z,22.94
2022-08-19T16:42:26.923Z,22.9
2022-08-19T16:44:06.684Z,22.91
2022-08-19T16:45:46.445Z,22.89
2022-08-19T16:47:26.203Z,22.88
2022-08-19T16:49:05.976Z,22.85
2022-08-19T16:50:45.737Z,22.86
2022-08-19T16:52:25.502Z,22.85
2022-08-19T16:54:05.273Z,22.82
2022-08-19T16:55:45.033Z,22.84
2022-08-19T16:57:24.791Z,22.83
2022-08-19T16:59:04.567Z,22.83
2022-08-19T17:00:44.328Z,22.82
2022-08-19T17:02:24.091Z,22.82
2022-08-19T17:04:03.850Z,22.82
2022-08-19T17:05:43.618Z,22.82
2022-08-19T17:09:03.145Z,22.8
2022-08-19T17:10:42.934Z,22.8
2022-08-19T17:12:22.663Z,22.85
2022-08-19T17:14:02.447Z,22.75
2022-08-19T17:15:42.199Z,22.77
2022-08-19T17:17:21.961Z,22.77
2022-08-19T17:19:01.723Z,22.74
2022-08-19T17:20:41.502Z,22.72
2022-08-19T17:22:21.262Z,22.68
2022-08-19T17:24:01.025Z,22.66
2022-08-19T17:25:40.783Z,22.59
2022-08-19T17:27:20.556Z,22.62
2022-08-19T17:29:00.322Z,22.59
2022-08-19T17:30:40.079Z,22.56
2022-08-19T17:32:19.842Z,22.53
2022-08-19T17:33:59.613Z,22.53
2022-08-19T17:35:39.384Z,22.5
2022-08-19T17:37:19.126Z,22.49
2022-08-19T17:38:58.901Z,22.49
2022-08-19T17:40:38.667Z,22.47
2022-08-19T17:42:18.424Z,22.44
2022-08-19T17:43:58.189Z,22.44
2022-08-19T17:45:37.948Z,22.46
2022-08-19T17:48:57.488Z,22.45
2022-08-19T17:50:37.256Z,22.45
2022-08-19T17:52:17.011Z,22.44
2022-08-19T17:53:56.775Z,22.43
2022-08-19T17:55:36.539Z,22.4
2022-08-19T17:57:16.298Z,22.39
2022-08-19T17:58:56.093Z,22.35
2022-08-19T18:00:35.844Z,22.35
2022-08-19T18:02:15.591Z,22.34
2022-08-19T18:03:55.368Z,22.34
2022-08-19T18:05:35.144Z,22.31
2022-08-19T18:07:14.892Z,22.36
2022-08-19T18:08:54.667Z,22.28
2022-08-19T18:10:34.423Z,22.26
2022-08-19T18:12:14.184Z,22.26
2022-08-19T18:13:53.940Z,22.24
2022-08-19T18:15:33.714Z,22.23
2022-08-19T18:17:13.476Z,22.22
2022-08-19T18:18:53.228Z,22.17
2022-08-19T18:20:32.994Z,22.18
2022-08-19T18:22:12.761Z,22.17
2022-08-19T18:23:52.523Z,22.15
2022-08-19T18:25:32.283Z,22.15
2022-08-19T18:28:51.832Z,22.09
2022-08-19T18:30:31.597Z,22.11
2022-08-19T18:32:11.355Z,22.07
2022-08-19T18:33:51.116Z,22.06
2022-08-19T18:35:30.871Z,22.07
2022-08-19T18:38:50.412Z,22.03
2022-08-19T18:40:30.168Z,22.01
2022-08-19T18:42:09.932Z,22.01
2022-08-19T18:43:49.708Z,21.99
2022-08-19T18:45:29.455Z,21.99
2022-08-19T18:47:09.222Z,21.98
2022-08-19T18:48:48.992Z,21.96
2022-08-19T18:50:28.771Z,21.97
2022-08-19T18:52:08.509Z,21.95
2022-08-19T18:53:48.282Z,22.01
2022-08-19T18:55:28.063Z,21.93
2022-08-19T18:57:07.812Z,21.93
2022-08-19T18:58:47.583Z,21.9
2022-08-19T19:00:27.343Z,21.89
2022-08-19T19:02:07.107Z,21.87
2022-08-19T19:03:46.871Z,21.86
2022-08-19T19:05:26.627Z,21.85
2022-08-19T19:07:06.390Z,21.84
2022-08-19T19:08:46.166Z,21.85
2022-08-19T19:10:25.932Z,21.84
2022-08-19T19:12:05.684Z,21.83
2022-08-19T19:13:45.452Z,21.81
2022-08-19T19:15:25.215Z,21.81
2022-08-19T19:17:04.980Z,21.8
2022-08-19T19:18:44.737Z,21.8
2022-08-19T19:20:24.506Z,21.8
2022-08-19T19:22:04.311Z,21.81
2022-08-19T19:23:44.043Z,21.76
2022-08-19T19:25:23.793Z,21.76
2022-08-19T19:27:03.570Z,21.75
2022-08-19T19:28:43.339Z,21.73
2022-08-19T19:30:23.086Z,21.73
2022-08-19T19:32:02.865Z,21.71
2022-08-19T19:33:42.629Z,21.73
2022-08-19T19:35:22.391Z,21.73
2022-08-19T19:37:02.149Z,21.69
2022-08-19T19:38:41.913Z,21.69
2022-08-19T19:40:21.683Z,21.69
2022-08-19T19:42:01.434Z,21.68
2022-08-19T19:43:41.214Z,21.66
2022-08-19T19:45:20.980Z,21.66
2022-08-19T19:48:40.506Z,21.7
2022-08-19T19:50:20.262Z,21.62
2022-08-19T19:52:00.031Z,21.59
2022-08-19T19:53:39.794Z,21.58
2022-08-19T19:55:19.564Z,21.59
2022-08-19T19:56:59.313Z,21.59
2022-08-19T19:58:39.090Z,21.58
2022-08-19T20:00:18.853Z,21.58
2022-08-19T20:01:58.613Z,21.57
2022-08-19T20:03:38.380Z,21.54
2022-08-19T20:05:18.135Z,21.51
2022-08-19T20:06:57.900Z,21.52
2022-08-19T20:08:37.675Z,21.54
2022-08-19T20:10:17.422Z,21.51
2022-08-19T20:11:57.207Z,21.51
2022-08-19T20:13:36.954Z,21.52
2022-08-19T20:15:16.731Z,21.51
2022-08-19T20:18:36.239Z,21.5
2022-08-19T20:20:16.024Z,21.49
2022-08-19T20:21:55.772Z,21.47
2022-08-19T20:23:35.536Z,21.54
2022-08-19T20:25:15.311Z,21.46
2022-08-19T20:26:55.076Z,21.45
2022-08-19T20:28:34.826Z,21.45
2022-08-19T20:30:14.599Z,21.43
2022-08-19T20:31:54.355Z,21.43
2022-08-19T20:33:34.117Z,21.42
2022-08-19T20:35:13.898Z,21.43
2022-08-19T20:36:53.655Z,21.4
2022-08-19T20:38:33.422Z,21.39
2022-08-19T20:40:13.188Z,21.39
2022-08-19T20:41:52.942Z,21.38
2022-08-19T20:43:32.720Z,21.39
2022-08-19T20:45:12.481Z,21.36
2022-08-19T20:46:52.256Z,21.36
2022-08-19T20:48:31.998Z,21.35
2022-08-19T20:50:11.770Z,21.35
2022-08-19T20:51:51.530Z,21.42
2022-08-19T20:53:31.303Z,21.3
2022-08-19T20:55:11.058Z,21.32
2022-08-19T20:56:50.816Z,21.3
2022-08-19T20:58:30.578Z,21.31
2022-08-19T21:00:10.352Z,21.3
2022-08-19T21:01:50.124Z,21.36
2022-08-19T21:03:29.881Z,21.28
2022-08-19T21:05:09.647Z,21.27
2022-08-19T21:06:49.419Z,21.27
2022-08-19T21:08:29.177Z,21.27
2022-08-19T21:10:08.941Z,21.23
2022-08-19T21:11:48.688Z,21.24
2022-08-19T21:13:28.458Z,21.24
2022-08-19T21:15:08.231Z,21.22
2022-08-19T21:16:47.987Z,21.35
2022-08-19T21:18:27.763Z,21.22
2022-08-19T21:20:07.519Z,21.19
2022-08-19T21:21:47.277Z,21.2
2022-08-19T21:23:27.057Z,21.2
2022-08-19T21:25:06.819Z,21.19
2022-08-19T21:26:46.599Z,21.18
2022-08-19T21:28:26.349Z,21.18
2022-08-19T21:30:06.099Z,21.18
2022-08-19T21:31:45.869Z,21.16
2022-08-19T21:33:25.645Z,21.16
2022-08-19T21:35:05.401Z,21.16
2022-08-19T21:36:45.168Z,21.15
2022-08-19T21:38:24.930Z,21.15
2022-08-19T21:40:04.694Z,21.14
2022-08-19T21:41:44.462Z,21.14
2022-08-19T21:43:24.206Z,21.13
2022-08-19T21:45:03.993Z,21.2
2022-08-19T21:46:43.754Z,21.12
2022-08-19T21:48:23.502Z,21.1
2022-08-19T21:50:03.278Z,21.1
2022-08-19T21:51:43.042Z,21.17
2022-08-19T21:53:22.806Z,21.08
2022-08-19T21:55:02.565Z,21.08
2022-08-19T21:56:42.329Z,21.08
2022-08-19T21:58:22.098Z,21.03
2022-08-19T22:00:01.856Z,21.18
2022-08-19T22:01:41.613Z,21.05
2022-08-19T22:03:21.388Z,21.04
2022-08-19T22:05:01.153Z,21.03
2022-08-19T22:06:40.911Z,21.03
2022-08-19T22:08:20.694Z,21.01
2022-08-19T22:10:00.439Z,21.01
2022-08-19T22:11:40.213Z,21
2022-08-19T22:13:19.965Z,21.06
2022-08-19T22:14:59.738Z,21
2022-08-19T22:16:39.508Z,20.96
2022-08-19T22:18:19.266Z,20.97
2022-08-19T22:19:59.042Z,20.95